Data for 06/10/2005

Time Sea-Level Adjusted Pressure Absolute Pressure Temperature Relative Humidity Dew Point   
(mb) (inHg) (mb) (inHg) (C) (F) (%) (C) (F)
00:05 1015 29.97 844 24.92 9.2 48.5 61 2.1 35.7
00:10 1015 29.97 844 24.92 8.7 47.6 63 2 35.5
00:15 1015 29.97 844 24.92 8.6 47.5 62 1.8 35.2
00:20 1015 29.97 844 24.92 8.6 47.5 63 2 35.7
00:25 1015 29.97 844 24.92 8.5 47.3 62 1.7 35.1
00:30 1015 29.97 844 24.92 8.5 47.2 62 1.6 34.9
00:35 1015 29.97 844 24.92 8.7 47.6 61 1.6 35
00:40 1015 29.97 844 24.92 8.6 47.6 62 1.9 35.3
00:45 1015 29.97 844 24.92 8.3 47 63 1.8 35.3
00:50 1015 29.97 844 24.92 8.1 46.5 63 1.5 34.7
00:55 1015 29.97 844 24.92 8.2 46.7 62 1.4 34.5
01:00 1015 29.97 844 24.92 8.2 46.7 62 1.4 34.5
01:05 1015 29.97 844 24.92 7.7 45.8 67 2 35.6
01:10 1015 29.97 844 24.92 7 44.6 69 1.7 35.1
01:15 1015 29.97 844 24.92 6.8 44.2 71 2 35.5
01:20 1015 29.97 844 24.92 6.6 43.9 72 1.9 35.3
01:25 1015 29.97 844 24.92 6.5 43.7 72 1.8 35.2
01:30 1015 29.97 844 24.92 6.4 43.4 72 1.8 35.2
01:35 1015 29.97 844 24.92 6.4 43.5 71 1.5 34.8
01:40 1015 29.97 844 24.92 6.6 43.9 71 1.7 35.1
01:45 1015 29.97 844 24.92 6.7 44 71 1.8 35.3
01:50 1015 29.97 844 24.92 6.7 44 71 1.8 35.2
01:55 1015 29.97 844 24.92 6.7 44.1 71 1.8 35.2
02:00 1015 29.97 844 24.92 6.7 44.1 71 1.9 35.4
02:05 1015 29.97 844 24.92 6.7 44.1 71 1.8 35.3
02:10 1015 29.97 844 24.92 6.7 44.1 71 1.8 35.3
02:15 1015 29.97 844 24.92 6.7 44 72 1.9 35.5
02:20 1015 29.97 844 24.92 6.7 44 71 1.8 35.3
02:25 1015 29.97 844 24.92 6.7 44.1 72 2 35.6
02:30 1015 29.97 844 24.92 6.7 44 72 2 35.5
02:35 1015 29.97 844 24.92 6.6 43.8 72 1.9 35.4
02:40 1015 29.97 844 24.92 6.6 43.9 70 1.6 34.8
02:45 1015 29.97 844 24.92 6.9 44.5 69 1.6 34.9
02:50 1015 29.97 844 24.92 7.1 44.7 70 1.9 35.5
02:55 1015 29.97 844 24.92 6.8 44.3 74 2.5 36.5
03:00 1015 29.97 844 24.92 6.6 43.9 74 2.4 36.3
03:05 1015 29.97 844 24.92 6.5 43.6 73 2 35.6
03:10 1015 29.97 844 24.92 6.7 44 70 1.6 34.9
03:15 1015 29.97 844 24.92 7.1 44.7 67 1.4 34.6
03:20 1015 29.97 844 24.92 7.3 45.1 66 1.3 34.3
03:25 1015 29.97 844 24.92 7.4 45.4 66 1.5 34.8
03:30 1015 29.97 844 24.92 7.2 45 70 2.1 35.8
03:35 1015 29.97 844 24.92 7 44.6 70 1.9 35.4
03:40 1014 29.94 844 24.92 7 44.5 69 1.7 35.1
03:45 1014 29.94 844 24.92 7 44.6 69 1.8 35.2
03:50 1014 29.94 844 24.92 6.9 44.4 69 1.6 35
03:55 1014 29.94 843 24.89 6.8 44.2 69 1.5 34.7
04:00 1014 29.94 843 24.89 6.6 43.8 70 1.5 34.7
04:05 1014 29.94 844 24.92 6.4 43.5 70 1.4 34.5
04:10 1014 29.94 844 24.92 6.2 43.2 71 1.4 34.5
04:15 1014 29.94 843 24.89 6 42.8 72 1.4 34.5
04:20 1014 29.94 843 24.89 5.7 42.3 74 1.4 34.6
04:25 1014 29.94 843 24.89 5.6 42.1 75 1.5 34.7
04:30 1014 29.94 843 24.89 5.5 42 76 1.6 34.8
04:35 1014 29.94 843 24.89 5.5 41.8 76 1.6 34.8
04:40 1014 29.94 843 24.89 5.4 41.7 76 1.6 34.9
04:45 1014 29.94 843 24.89 5.3 41.5 77 1.5 34.8
04:50 1014 29.94 843 24.89 5.3 41.6 77 1.6 34.8
04:55 1014 29.94 843 24.89 5.4 41.6 76 1.5 34.7
05:00 1014 29.94 843 24.89 5.4 41.7 76 1.4 34.5
05:05 1014 29.94 843 24.89 5.1 41.2 78 1.6 34.9
05:10 1014 29.94 843 24.89 4.9 40.8 78 1.3 34.4
05:15 1014 29.94 843 24.89 5 40.9 77 1.2 34.2
05:20 1014 29.94 843 24.89 5.3 41.5 74 1 33.8
05:25 1014 29.94 843 24.89 5.7 42.3 72 1.1 33.9
05:30 1014 29.94 843 24.89 5.6 42.1 74 1.3 34.3
05:35 1014 29.94 843 24.89 5.5 42 74 1.3 34.3
05:40 1014 29.94 843 24.89 5.4 41.8 74 1.1 34.1
05:45 1014 29.94 843 24.89 5.7 42.3 71 1 33.7
05:50 1014 29.94 843 24.89 5.9 42.5 71 0.9 33.7
05:55 1014 29.94 843 24.89 5.9 42.7 72 1.3 34.3
06:00 1014 29.94 843 24.89 5.7 42.3 72 1.2 34.1
06:05 1014 29.94 843 24.89 5.7 42.3 73 1.2 34.2
06:10 1014 29.94 843 24.89 5.7 42.3 74 1.4 34.6
06:15 1014 29.94 844 24.92 5.4 41.7 75 1.3 34.4
06:20 1014 29.94 844 24.92 5.2 41.4 76 1.4 34.5
06:25 1014 29.94 844 24.92 5.2 41.4 76 1.4 34.5
06:30 1014 29.94 844 24.92 5.4 41.6 76 1.4 34.5
06:35 1014 29.94 844 24.92 5.5 42 74 1.2 34.2
06:40 1014 29.94 844 24.92 6 42.8 70 1 33.7
06:45 1014 29.94 844 24.92 6.6 43.9 68 1.2 34.2
06:50 1014 29.94 844 24.92 6.9 44.4 68 1.3 34.4
06:55 1015 29.97 844 24.92 7.1 44.7 67 1.4 34.6
07:00 1015 29.97 844 24.92 7.3 45.1 67 1.5 34.8
07:05 1015 29.97 844 24.92 7.6 45.6 66 1.7 35
07:10 1015 29.97 844 24.92 7.9 46.2 66 2 35.6
07:15 1015 29.97 844 24.92 8 46.3 65 1.9 35.4
07:20 1015 29.97 844 24.92 7.9 46.3 64 1.7 35
07:25 1015 29.97 844 24.92 8.3 46.9 65 2.1 35.7
07:30 1015 29.97 844 24.92 8.8 47.8 64 2.3 36.2
07:35 1015 29.97 844 24.92 9 48.1 64 2.6 36.7
07:40 1015 29.97 844 24.92 8.9 48 65 2.7 36.9
07:45 1015 29.97 844 24.92 8.7 47.6 66 2.6 36.7
07:50 1015 29.97 844 24.92 8.9 47.9 64 2.6 36.6
07:55 1015 29.97 844 24.92 9.8 49.6 62 2.8 37.1
08:00 1015 29.97 844 24.92 10.5 51 59 3 37.4
08:05 1015 29.97 844 24.92 11.2 52.1 57 3 37.4
08:10 1015 29.97 844 24.92 12 53.6 55 3.2 37.8
08:15 1015 29.97 844 24.92 12.3 54.2 55 3.6 38.5
08:20 1015 29.97 844 24.92 12.6 54.7 54 3.6 38.5
08:25 1015 29.97 844 24.92 12.9 55.2 53 3.6 38.5
08:30 1015 29.97 844 24.92 13.3 55.9 52 3.8 38.8
08:35 1015 29.97 844 24.92 13.6 56.4 51 3.8 38.9
08:40 1015 29.97 844 24.92 13.1 55.5 54 3.9 39.1
08:45 1015 29.97 844 24.92 12.9 55.2 52 3.4 38.2
08:50 1015 29.97 844 24.92 12.8 55.1 52 3.2 37.7
08:55 1015 29.97 844 24.92 12.6 54.6 53 3.4 38.1
09:00 1015 29.97 844 24.92 12.5 54.5 51 2.8 37.1
09:05 1015 29.97 844 24.92 12.6 54.7 53 3.4 38.1
09:10 1015 29.97 844 24.92 12.8 55.1 53 3.7 38.6
09:15 1015 29.97 844 24.92 11.9 53.4 58 3.8 38.9
09:20 1015 29.97 844 24.92 11.5 52.8 57 3.2 37.8
09:25 1015 29.97 844 24.92 12.2 53.9 55 3.4 38.1
09:30 1015 29.97 844 24.92 12.5 54.4 54 3.5 38.4
09:35 1015 29.97 844 24.92 12 53.7 54 3 37.4
09:40 1015 29.97 844 24.92 12.1 53.8 53 3 37.4
09:45 1015 29.97 844 24.92 12.7 54.9 52 3.1 37.6
09:50 1015 29.97 844 24.92 13 55.3 52 3.5 38.2
09:55 1015 29.97 844 24.92 13.3 55.9 50 3 37.5
10:00 1015 29.97 844 24.92 14.3 57.8 45 2.5 36.5
10:05 1014 29.94 844 24.92 14.8 58.6 44 2.8 37
10:10 1014 29.94 844 24.92 15.1 59.2 43 2.7 36.9
10:15 1014 29.94 844 24.92 15.2 59.4 43 2.9 37.3
10:20 1014 29.94 844 24.92 15.8 60.4 41 2.6 36.7
10:25 1014 29.94 844 24.92 15.6 60 41 2.3 36.2
10:30 1014 29.94 844 24.92 15 59 40 1.6 35
10:35 1014 29.94 843 24.89 15.4 59.8 40 2 35.6
10:40 1014 29.94 843 24.89 16.2 61.1 37 1.7 35.1
10:45 1014 29.94 843 24.89 16.3 61.4 37 1.7 35
10:50 1014 29.94 843 24.89 16.2 61.2 39 2.3 36.2
10:55 1014 29.94 843 24.89 16 60.7 37 1.4 34.5
11:00 1014 29.94 843 24.89 15.7 60.3 41 2.5 36.4
11:05 1014 29.94 843 24.89 15.2 59.4 40 1.8 35.3
11:10 1014 29.94 843 24.89 14.9 58.7 39 1.2 34.2
11:15 1014 29.94 843 24.89 14.8 58.7 42 2 35.6
11:20 1014 29.94 843 24.89 14.7 58.5 41 1.6 34.8
11:25 1014 29.94 843 24.89 14.6 58.2 41 1.6 35
11:30 1014 29.94 843 24.89 14.9 58.9 41 2 35.6
11:35 1014 29.94 844 24.92 14.8 58.6 42 2.1 35.9
11:40 1014 29.94 844 24.92 15.1 59.1 40 1.7 35.1
11:45 1014 29.94 843 24.89 14.9 58.8 41 2 35.6
11:50 1014 29.94 844 24.92 14.8 58.7 42 2.2 36
11:55 1014 29.94 843 24.89 14.4 58 42 1.8 35.2
12:00 1014 29.94 844 24.92 14.3 57.7 40 0.8 33.5
12:05 1014 29.94 843 24.89 14.4 57.9 41 1.3 34.4
12:10 1014 29.94 843 24.89 14.5 58.1 41 1.5 34.7
12:15 1014 29.94 843 24.89 14.8 58.7 39 1.3 34.3
12:20 1014 29.94 843 24.89 15 59 40 1.7 35
12:25 1014 29.94 843 24.89 14.9 58.8 39 1.2 34.2
12:30 1014 29.94 843 24.89 15.1 59.1 38 1 33.8
12:35 1014 29.94 843 24.89 15 59 39 1.3 34.3
12:40 1014 29.94 843 24.89 15.1 59.1 39 1.3 34.4
12:45 1014 29.94 843 24.89 15.3 59.5 39 1.7 35
12:50 1014 29.94 843 24.89 15.5 59.8 37 1.1 34
12:55 1014 29.94 843 24.89 15.9 60.5 36 0.8 33.4
13:00 1014 29.94 843 24.89 16.1 61 35 0.6 33
13:05 1014 29.94 843 24.89 15.3 59.5 38 1.2 34.1
13:10 1014 29.94 843 24.89 15.6 60 35 0.3 32.5
13:15 1014 29.94 843 24.89 14.9 58.9 37 0.5 32.9
13:20 1014 29.94 843 24.89 14.5 58.1 31 -2.2 28
13:25 1014 29.94 843 24.89 14.5 58.1 39 0.6 33.2
13:30 1014 29.94 843 24.89 14.7 58.5 38 0.5 32.9
13:35 1014 29.94 843 24.89 14.8 58.6 37 0.2 32.3
13:40 1014 29.94 843 24.89 15 59.1 35 -0 32
13:45 1014 29.94 843 24.89 15 59 39 1.3 34.4
13:50 1014 29.94 843 24.89 15.5 59.9 38 1.4 34.5
13:55 1014 29.94 843 24.89 15.9 60.5 36 0.8 33.4
14:00 1014 29.94 843 24.89 15.8 60.4 35 0.7 33.2
14:05 1014 29.94 843 24.89 15.7 60.3 35 0.5 32.9
14:10 1014 29.94 843 24.89 15.7 60.3 37 1 33.8
14:15 1014 29.94 843 24.89 16 60.7 35 0.8 33.5
14:20 1014 29.94 843 24.89 16.3 61.3 35 0.7 33.3
14:25 1014 29.94 843 24.89 15.7 60.3 37 1.1 34
14:30 1014 29.94 843 24.89 16.5 61.6 33 0.3 32.5
14:35 1014 29.94 843 24.89 17.1 62.7 33 0.6 33.1
14:40 1014 29.94 843 24.89 17.8 64.1 28 -0.9 30.4
14:45 1014 29.94 843 24.89 18.6 65.4 30 0.9 33.6
14:50 1014 29.94 843 24.89 18.5 65.3 27 -0.9 30.4
14:55 1014 29.94 843 24.89 18.4 65.1 28 -0.2 31.6
15:00 1014 29.94 843 24.89 17.5 63.6 30 -0.2 31.7
15:05 1014 29.94 843 24.89 17.4 63.3 29 -0.5 31.2
15:10 1013 29.91 843 24.89 18 64.4 28 -0.5 31.1
15:15 1013 29.91 843 24.89 18.8 65.8 27 -0.6 30.9
15:20 1013 29.91 843 24.89 18.1 64.5 28 -0.4 31.2
15:25 1013 29.91 843 24.89 18.1 64.6 29 -0 32
15:30 1013 29.91 843 24.89 17.6 63.7 29 -0.3 31.4
15:35 1013 29.91 842 24.86 17.6 63.7 30 -0.1 31.9
15:40 1013 29.91 842 24.86 19 66.2 29 0.9 33.6
15:45 1013 29.91 842 24.86 19.2 66.6 29 0.9 33.6
15:50 1013 29.91 842 24.86 18.6 65.5 30 0.8 33.4
15:55 1013 29.91 842 24.86 18.5 65.4 31 1.1 34
16:00 1013 29.91 842 24.86 18.8 65.9 29 0.8 33.4
16:05 1013 29.91 842 24.86 17.9 64.3 31 0.5 32.9
16:10 1013 29.91 842 24.86 18.2 64.8 29 0.2 32.3
16:15 1013 29.91 842 24.86 18.7 65.6 30 0.7 33.3
16:20 1013 29.91 842 24.86 18 64.5 30 0.6 33
16:25 1013 29.91 842 24.86 18.4 65.1 30 0.6 33.1
16:30 1013 29.91 842 24.86 18.6 65.6 30 0.8 33.4
16:35 1013 29.91 842 24.86 18.4 65.2 30 0.9 33.6
16:40 1013 29.91 842 24.86 18 64.4 31 0.7 33.3
16:45 1013 29.91 842 24.86 18.9 66 28 0.4 32.6
16:50 1013 29.91 842 24.86 19.3 66.7 28 0.4 32.6
16:55 1013 29.91 842 24.86 18.9 66 29 0.6 33.1
17:00 1013 29.91 842 24.86 19.2 66.5 28 0.2 32.4
17:05 1013 29.91 842 24.86 19.3 66.7 28 0.3 32.5
17:10 1013 29.91 842 24.86 19.2 66.5 28 0.2 32.4
17:15 1013 29.91 842 24.86 19.1 66.3 27 0 32
17:20 1013 29.91 842 24.86 18.8 65.8 28 0.1 32.2
17:25 1013 29.91 842 24.86 19.1 66.5 28 0.1 32.2
17:30 1013 29.91 842 24.86 19 66.2 28 0.4 32.7
17:35 1013 29.91 842 24.86 19.1 66.3 28 0.3 32.5
17:40 1013 29.91 842 24.86 18.6 65.4 30 0.8 33.5
17:45 1013 29.91 842 24.86 18 64.3 31 0.9 33.7
17:50 1013 29.91 842 24.86 17.7 63.9 32 1 33.8
17:55 1013 29.91 842 24.86 17.7 63.9 31 0.4 32.7
18:00 1012 29.88 842 24.86 18.4 65.1 30 0.5 32.8
18:05 1013 29.91 842 24.86 18.8 65.9 29 0.5 33
18:10 1013 29.91 842 24.86 19.1 66.4 29 0.9 33.6
18:15 1013 29.91 842 24.86 19.1 66.3 30 1.1 34
18:20 1013 29.91 842 24.86 18.3 64.9 32 1.4 34.6
18:25 1013 29.91 842 24.86 18.2 64.7 32 1.2 34.2
18:30 1013 29.91 842 24.86 18.2 64.8 30 0.5 32.9
18:35 1013 29.91 842 24.86 18 64.4 32 1.2 34.2
18:40 1013 29.91 842 24.86 17.5 63.4 34 1.4 34.4
18:45 1013 29.91 842 24.86 17.1 62.8 34 1.3 34.3
18:50 1013 29.91 842 24.86 17.2 63 34 1.1 34
18:55 1013 29.91 842 24.86 17.7 63.9 33 1.5 34.6
19:00 1012 29.88 842 24.86 18 64.3 33 1.7 35
19:05 1012 29.88 842 24.86 18 64.4 30 0.4 32.8
19:10 1012 29.88 842 24.86 18.1 64.5 30 0.5 32.9
19:15 1012 29.88 842 24.86 18 64.5 31 0.6 33.1
19:20 1012 29.88 842 24.86 17.8 64.1 31 0.8 33.4
19:25 1012 29.88 842 24.86 17.6 63.7 30 -0.2 31.7
19:30 1012 29.88 842 24.86 17.3 63.1 31 0.1 32.1
19:35 1012 29.88 842 24.86 17 62.6 34 1.3 34.3
19:40 1012 29.88 842 24.86 16.7 62.1 38 2.3 36.2
19:45 1012 29.88 842 24.86 16.6 61.9 39 2.5 36.5
19:50 1012 29.88 842 24.86 16.6 61.9 39 2.6 36.7
19:55 1013 29.91 842 24.86 16 60.9 41 3 37.4
20:00 1013 29.91 842 24.86 15.5 59.9 43 3 37.5
20:05 1013 29.91 842 24.86 15.4 59.7 43 3.1 37.6
20:10 1013 29.91 842 24.86 15.3 59.5 44 3.1 37.7
20:15 1013 29.91 842 24.86 15.1 59.3 45 3.4 38.2
20:20 1013 29.91 842 24.86 14.9 58.8 45 3.1 37.6
20:25 1013 29.91 842 24.86 14.9 58.9 44 3 37.4
20:30 1013 29.91 842 24.86 15 59 45 3.2 37.8
20:35 1013 29.91 842 24.86 14.9 58.9 45 3.4 38
20:40 1013 29.91 842 24.86 14.8 58.6 46 3.5 38.2
20:45 1013 29.91 842 24.86 14.6 58.3 47 3.5 38.3
20:50 1013 29.91 842 24.86 14.6 58.2 47 3.4 38.1
20:55 1013 29.91 842 24.86 14.5 58.1 47 3.4 38.1
21:00 1013 29.91 842 24.86 14.5 58.1 46 3.2 37.8
21:05 1013 29.91 842 24.86 14.5 58.1 46 3.2 37.8
21:10 1013 29.91 842 24.86 14.4 57.9 47 3.2 37.8
21:15 1013 29.91 842 24.86 14.4 57.8 46 3 37.4
21:20 1013 29.91 842 24.86 14.2 57.6 47 3 37.4
21:25 1013 29.91 842 24.86 14.1 57.4 50 3.9 39
21:30 1013 29.91 842 24.86 13.6 56.4 54 4.5 40.1
21:35 1013 29.91 842 24.86 13 55.4 61 5.7 42.3
21:40 1013 29.91 842 24.86 12.8 55.1 60 5.3 41.6
21:45 1013 29.91 842 24.86 12.6 54.6 60 5.1 41.2
21:50 1013 29.91 842 24.86 12.2 53.9 63 5.5 41.9
21:55 1013 29.91 842 24.86 11.7 53.1 65 5.3 41.6
22:00 1013 29.91 842 24.86 11.3 52.4 66 5.3 41.5
22:05 1013 29.91 842 24.86 11 51.8 68 5.3 41.6
22:10 1013 29.91 842 24.86 10.8 51.5 67 5 41.1
22:15 1013 29.91 842 24.86 10.6 51.1 68 5 40.9
22:20 1013 29.91 842 24.86 10.4 50.7 69 4.9 40.8
22:25 1013 29.91 842 24.86 10 49.9 70 4.7 40.5
22:30 1013 29.91 843 24.89 9.9 49.8 69 4.6 40.3
22:35 1013 29.91 843 24.89 9.7 49.5 71 4.6 40.3
22:40 1013 29.91 843 24.89 9.6 49.2 70 4.4 39.8
22:45 1013 29.91 842 24.86 9.6 49.2 70 4.3 39.8
22:50 1013 29.91 842 24.86 9.4 48.9 69 4.1 39.3
22:55 1013 29.91 843 24.89 9.5 49 68 3.9 39
23:00 1013 29.91 843 24.89 9.4 48.9 69 4 39.3
23:05 1013 29.91 842 24.86 9.2 48.6 69 3.9 38.9
23:10 1013 29.91 842 24.86 9.2 48.5 70 4 39.2
23:15 1013 29.91 842 24.86 9 48.2 71 4 39.1
23:20 1013 29.91 842 24.86 8.9 48.1 70 3.8 38.9
23:25 1013 29.91 842 24.86 9 48.2 69 3.7 38.7
23:30 1013 29.91 842 24.86 9 48.2 69 3.6 38.5
23:35 1013 29.91 842 24.86 9 48.2 70 3.8 38.8
23:40 1013 29.91 842 24.86 8.8 47.8 71 3.8 38.9
23:45 1013 29.91 842 24.86 8.5 47.3 71 3.6 38.4
23:50 1013 29.91 842 24.86 8.5 47.2 72 3.6 38.5
23:55 1013 29.91 842 24.86 8.5 47.4 70 3.4 38.1
24:00 1013 29.91 842 24.86 8.5 47.3 71 3.7 38.6